ΕΜΥ, Εθνική Μετεωρολογική Υπηρεσία - Δελτία Καιρού, Προγνώσεις

ΑΕΡΟΝΑΥΤΙΛΙΑ

GREEK AIRPORTS CODES

LGST 031400Z AUTO 29007KT 280V340 //// // ////// 23/14 Q1010 RE//=

EUROPEAN AIRPORTS CODES

LFPO 031400Z AUTO 04006KT 320V080 CAVOK 26/10 Q1002 NOSIG=